BAW59 EGLL-FACT
Flight info
| Callsign | BAW59 |
|---|---|
| Flight time | N/A |
| Altitude | 23000 |
| Route | MODMI M185 MID L612 HAWKE/N0492F310 UL612 VEULE DCT DEKOD DCT DISAK DCT DIRMO DCT ETAMO DCT ADEKA DCT MOKDI DCT MEN DCT AMLIR DCT FJR DCT OBLAD DCT KAMER UM998 CSO/N0492F330 UA605 DJA UB730 DIR UA607 FL UA403 UMOSA/N0496F350 UA403 BZ DCT KSA UT943 IMVEX/N0494F360 UT943 UNLOK/N0495F350 UT943 OTAVI/N0491F370 UT943 VEDRY/N0491F360 UN185 OKLOK/N0459F240 Q23 DUMDO DCT ERDAS ERDAS1C |
| Aircraft | B77W/H-SDE1E2E3FGHIJ2J3J4J5M1RWXY/LB1D1 |
Departure
| Time | 2026-04-30 20:48 |
|---|---|
| Airport | London Heathrow Airport (EGLL) |
Arrival
| Time | N/A |
|---|---|
| Airport | Cape Town International Airport (FACT) |
| Time | Latitude | Longitude | Altitude | Speed | Heading |
|---|---|---|---|---|---|
| 2026-04-30 20:12 | 51.47115 | -0.48240 | 98 ft | 0 kts | 90° |
| 2026-04-30 20:33 | 51.47115 | -0.48261 | 98 ft | 2 kts | 90° |
| 2026-04-30 20:33 | 51.47115 | -0.48285 | 98 ft | 2 kts | 90° |
| 2026-04-30 20:34 | 51.47122 | -0.48330 | 98 ft | 2 kts | 129° |
| 2026-04-30 20:34 | 51.47146 | -0.48356 | 98 ft | 2 kts | 168° |
| 2026-04-30 20:35 | 51.47155 | -0.48358 | 98 ft | 0 kts | 180° |
| 2026-04-30 20:35 | 51.47160 | -0.48358 | 98 ft | 0 kts | 180° |
| 2026-04-30 20:40 | 51.47124 | -0.48358 | 98 ft | 6 kts | 180° |
| 2026-04-30 20:40 | 51.47071 | -0.48357 | 98 ft | 9 kts | 180° |
| 2026-04-30 20:40 | 51.47008 | -0.48356 | 98 ft | 8 kts | 180° |
| 2026-04-30 20:41 | 51.46916 | -0.48355 | 98 ft | 4 kts | 180° |
| 2026-04-30 20:41 | 51.46889 | -0.48354 | 98 ft | 3 kts | 180° |
| 2026-04-30 20:41 | 51.46869 | -0.48354 | 98 ft | 2 kts | 180° |
| 2026-04-30 20:41 | 51.46857 | -0.48354 | 98 ft | 1 kts | 180° |
| 2026-04-30 20:42 | 51.46851 | -0.48354 | 98 ft | 1 kts | 180° |
| 2026-04-30 20:42 | 51.46828 | -0.48354 | 98 ft | 5 kts | 180° |
| 2026-04-30 20:42 | 51.46746 | -0.48384 | 98 ft | 6 kts | 237° |
| 2026-04-30 20:43 | 51.46739 | -0.48463 | 98 ft | 7 kts | 271° |
| 2026-04-30 20:43 | 51.46740 | -0.48534 | 98 ft | 5 kts | 271° |
| 2026-04-30 20:43 | 51.46741 | -0.48607 | 98 ft | 7 kts | 271° |
| 2026-04-30 20:44 | 51.46719 | -0.48738 | 98 ft | 5 kts | 205° |
| 2026-04-30 20:44 | 51.46688 | -0.48746 | 98 ft | 4 kts | 182° |
| 2026-04-30 20:44 | 51.46640 | -0.48751 | 98 ft | 5 kts | 190° |
| 2026-04-30 20:45 | 51.46525 | -0.48781 | 98 ft | 8 kts | 167° |
| 2026-04-30 20:45 | 51.46487 | -0.48732 | 98 ft | 6 kts | 119° |
| 2026-04-30 20:45 | 51.46478 | -0.48670 | 98 ft | 5 kts | 92° |
| 2026-04-30 20:46 | 51.46478 | -0.48661 | 98 ft | 0 kts | 91° |
| 2026-04-30 20:46 | 51.46478 | -0.48593 | 98 ft | 25 kts | 91° |
| 2026-04-30 20:47 | 51.46484 | -0.46512 | 98 ft | 156 kts | 90° |
| 2026-04-30 20:47 | 51.46494 | -0.44570 | 430 ft | 181 kts | 89° |
| 2026-04-30 20:48 | 51.46373 | -0.40561 | 1915 ft | 188 kts | 114° |
| 2026-04-30 20:48 | 51.45664 | -0.38699 | 2207 ft | 206 kts | 133° |
| 2026-04-30 20:48 | 51.44464 | -0.37332 | 2593 ft | 221 kts | 157° |
| 2026-04-30 20:48 | 51.42986 | -0.36480 | 3110 ft | 234 kts | 159° |
| 2026-04-30 20:49 | 51.41412 | -0.35704 | 3753 ft | 242 kts | 169° |
| 2026-04-30 20:49 | 51.39717 | -0.35825 | 4375 ft | 253 kts | 193° |
| 2026-04-30 20:49 | 51.38087 | -0.36939 | 5125 ft | 257 kts | 203° |
| 2026-04-30 20:50 | 51.34852 | -0.39540 | 6308 ft | 268 kts | 203° |
| 2026-04-30 20:50 | 51.33192 | -0.40845 | 7131 ft | 266 kts | 203° |
| 2026-04-30 20:50 | 51.31535 | -0.42141 | 7808 ft | 269 kts | 203° |
| 2026-04-30 20:50 | 51.29848 | -0.43462 | 8434 ft | 273 kts | 203° |
| 2026-04-30 20:51 | 51.28143 | -0.44797 | 9112 ft | 275 kts | 203° |
| 2026-04-30 20:51 | 51.24685 | -0.47548 | 10342 ft | 283 kts | 203° |
| 2026-04-30 20:51 | 51.22891 | -0.48979 | 10716 ft | 297 kts | 203° |
| 2026-04-30 20:52 | 51.20989 | -0.50456 | 11025 ft | 313 kts | 203° |
| 2026-04-30 20:52 | 51.18988 | -0.51999 | 11360 ft | 328 kts | 203° |
| 2026-04-30 20:52 | 51.14699 | -0.55314 | 12106 ft | 357 kts | 203° |
| 2026-04-30 20:53 | 51.12419 | -0.57050 | 12472 ft | 371 kts | 200° |
| 2026-04-30 20:53 | 51.09943 | -0.58351 | 12926 ft | 379 kts | 190° |
| 2026-04-30 20:53 | 51.07330 | -0.58920 | 13593 ft | 381 kts | 180° |
| 2026-04-30 20:54 | 51.02116 | -0.57822 | 14976 ft | 384 kts | 161° |
| 2026-04-30 20:54 | 50.99645 | -0.56222 | 15155 ft | 385 kts | 152° |
| 2026-04-30 20:54 | 50.97370 | -0.54014 | 15172 ft | 383 kts | 146° |
| 2026-04-30 20:55 | 50.92941 | -0.49254 | 15364 ft | 393 kts | 146° |
| 2026-04-30 20:55 | 50.90683 | -0.46839 | 16250 ft | 392 kts | 146° |
| 2026-04-30 20:55 | 50.88445 | -0.44452 | 17129 ft | 389 kts | 146° |
| 2026-04-30 20:56 | 50.83918 | -0.39642 | 18380 ft | 399 kts | 146° |
| 2026-04-30 20:56 | 50.81606 | -0.37192 | 19045 ft | 402 kts | 146° |
| 2026-04-30 20:56 | 50.76950 | -0.32271 | 20404 ft | 407 kts | 146° |
| 2026-04-30 20:57 | 50.74593 | -0.29785 | 21017 ft | 410 kts | 146° |
| 2026-04-30 20:57 | 50.72217 | -0.27283 | 21654 ft | 413 kts | 146° |
| 2026-04-30 20:57 | 50.69832 | -0.24774 | 22280 ft | 416 kts | 146° |
| 2026-04-30 20:58 | 50.65010 | -0.19712 | 23450 ft | 421 kts | 146° |
| 2026-04-30 20:58 | 50.62570 | -0.17155 | 23988 ft | 424 kts | 146° |
| 2026-04-30 20:58 | 50.60108 | -0.14578 | 24494 ft | 428 kts | 146° |
| 2026-04-30 20:58 | 50.57625 | -0.11984 | 24949 ft | 432 kts | 146° |
| 2026-04-30 20:59 | 50.52593 | -0.06735 | 25898 ft | 440 kts | 146° |
| 2026-04-30 20:59 | 50.50043 | -0.04081 | 26374 ft | 443 kts | 146° |
| 2026-04-30 21:00 | 50.44882 | 0.01281 | 27285 ft | 450 kts | 146° |
| 2026-04-30 21:00 | 50.39650 | 0.06702 | 28167 ft | 456 kts | 146° |
| 2026-04-30 21:01 | 50.34332 | 0.12196 | 28989 ft | 463 kts | 146° |
| 2026-04-30 21:01 | 50.31646 | 0.14966 | 29407 ft | 465 kts | 146° |
| 2026-04-30 21:01 | 50.26247 | 0.20521 | 30496 ft | 465 kts | 146° |